createdAt,value
2023-04-18T00:01:03.132Z,3.92
2023-04-18T00:03:40.572Z,4.50
2023-04-18T00:06:22.620Z,5.47
2023-04-18T00:08:53.439Z,3.92
2023-04-18T00:11:22.260Z,4.82
2023-04-18T00:13:55.385Z,5.30
2023-04-18T00:16:33.143Z,4.53
2023-04-18T00:19:11.177Z,5.32
2023-04-18T00:21:49.649Z,3.40
2023-04-18T00:24:28.567Z,5.10
2023-04-18T00:27:12.210Z,5.35
2023-04-18T00:29:48.402Z,4.05
2023-04-18T00:32:28.476Z,5.05
2023-04-18T00:35:08.104Z,5.03
2023-04-18T00:37:41.833Z,5.10
2023-04-18T00:40:19.205Z,4.72
2023-04-18T00:42:56.065Z,4.28
2023-04-18T00:45:32.642Z,4.10
2023-04-18T00:48:17.405Z,3.63
2023-04-18T00:51:00.447Z,4.13
2023-04-18T00:53:35.026Z,4.93
2023-04-18T00:56:14.321Z,3.75
2023-04-18T00:59:00.411Z,5.60
2023-04-18T01:01:33.710Z,4.30
2023-04-18T01:04:09.129Z,4.50
2023-04-18T01:06:46.107Z,5.28
2023-04-18T01:09:28.406Z,3.53
2023-04-18T01:12:04.391Z,4.85
2023-04-18T01:14:42.735Z,3.88
2023-04-18T01:17:34.602Z,4.50
2023-04-18T01:20:08.636Z,4.63
2023-04-18T01:22:44.377Z,3.88
2023-04-18T01:25:12.300Z,5.57
2023-04-18T01:27:54.564Z,4.18
2023-04-18T01:30:41.523Z,3.97
2023-04-18T01:33:20.181Z,3.95
2023-04-18T01:35:54.358Z,4.60
2023-04-18T01:38:30.605Z,4.80
2023-04-18T01:41:06.010Z,5.28
2023-04-18T01:43:47.491Z,5.25
2023-04-18T01:46:22.217Z,3.53
2023-04-18T01:49:05.721Z,4.25
2023-04-18T01:51:44.466Z,4.35
2023-04-18T01:54:19.507Z,4.35
2023-04-18T01:56:57.286Z,3.72
2023-04-18T01:59:29.825Z,4.65
2023-04-18T02:02:13.837Z,5.00
2023-04-18T02:04:52.591Z,5.25
2023-04-18T02:07:31.254Z,3.70
2023-04-18T02:10:07.574Z,4.00
2023-04-18T02:12:45.814Z,3.15
2023-04-18T02:15:23.952Z,4.03
2023-04-18T02:18:00.580Z,3.95
2023-04-18T02:20:33.738Z,4.68
2023-04-18T02:23:09.559Z,4.53
2023-04-18T02:25:46.039Z,4.30
2023-04-18T02:28:19.121Z,5.07
2023-04-18T02:30:50.703Z,5.38
2023-04-18T02:33:30.784Z,5.05
2023-04-18T02:36:04.055Z,5.57
2023-04-18T02:38:38.976Z,4.07
2023-04-18T02:41:23.027Z,4.63
2023-04-18T02:43:59.918Z,4.15
2023-04-18T02:46:35.662Z,4.75
2023-04-18T02:49:10.228Z,4.80
2023-04-18T02:51:49.010Z,4.43
2023-04-18T02:54:28.549Z,4.53
2023-04-18T02:57:23.210Z,3.58
2023-04-18T03:00:10.415Z,4.32
2023-04-18T03:03:08.031Z,3.35
2023-04-18T03:05:48.888Z,3.55
2023-04-18T03:08:24.150Z,4.22
2023-04-18T03:11:00.218Z,4.25
2023-04-18T03:13:42.966Z,4.40
2023-04-18T03:16:19.328Z,3.05
2023-04-18T03:18:52.987Z,3.80
2023-04-18T03:21:31.020Z,3.90
2023-04-18T03:24:11.961Z,4.20
2023-04-18T03:26:41.251Z,3.42
2023-04-18T03:29:20.609Z,3.70
2023-04-18T03:31:59.873Z,4.15
2023-04-18T03:34:36.483Z,4.90
2023-04-18T03:37:17.544Z,4.20
2023-04-18T03:39:54.713Z,3.90
2023-04-18T03:42:32.438Z,6.18
2023-04-18T03:45:13.780Z,5.53
2023-04-18T03:47:49.330Z,4.15
2023-04-18T03:50:26.221Z,4.40
2023-04-18T03:53:08.975Z,6.05
2023-04-18T03:55:50.580Z,4.63
2023-04-18T03:58:41.486Z,4.97
2023-04-18T04:01:10.061Z,4.70
2023-04-18T04:03:46.042Z,3.15
2023-04-18T04:06:19.505Z,3.40
2023-04-18T04:08:57.244Z,3.40
2023-04-18T04:11:30.413Z,3.13
2023-04-18T04:14:06.997Z,4.68
2023-04-18T04:16:46.097Z,4.47
2023-04-18T04:19:23.086Z,3.33
2023-04-18T04:22:01.906Z,3.42
2023-04-18T04:24:39.598Z,3.75
2023-04-18T04:27:22.831Z,3.83
2023-04-18T04:29:58.256Z,4.57
2023-04-18T04:32:33.927Z,4.03
2023-04-18T04:35:04.942Z,4.45
2023-04-18T04:37:46.809Z,4.45
2023-04-18T04:40:41.528Z,3.72
2023-04-18T04:43:19.338Z,3.88
2023-04-18T04:45:58.022Z,3.20
2023-04-18T04:48:25.947Z,3.03
2023-04-18T04:50:59.684Z,4.00
2023-04-18T04:53:40.946Z,3.60
2023-04-18T04:56:17.840Z,4.25
2023-04-18T04:58:54.258Z,3.17
2023-04-18T05:01:30.646Z,4.07
2023-04-18T05:04:02.417Z,5.18
2023-04-18T05:06:40.255Z,3.28
2023-04-18T05:09:16.682Z,3.20
2023-04-18T05:11:51.850Z,3.95
2023-04-18T05:14:23.310Z,4.22
2023-04-18T05:16:58.657Z,3.92
2023-04-18T05:19:43.369Z,3.58
2023-04-18T05:22:29.800Z,3.72
2023-04-18T05:27:45.662Z,5.03
2023-04-18T05:30:16.240Z,4.65
2023-04-18T05:32:49.903Z,3.75
2023-04-18T05:37:54.093Z,3.42
2023-04-18T05:40:30.319Z,5.03
2023-04-18T05:43:03.558Z,3.78
2023-04-18T05:45:37.508Z,3.33
2023-04-18T05:48:05.902Z,4.82
2023-04-18T05:50:39.451Z,4.10
2023-04-18T05:53:10.138Z,4.35
2023-04-18T05:55:41.135Z,4.50
2023-04-18T05:58:12.059Z,5.20
2023-04-18T06:00:43.189Z,3.65
2023-04-18T06:03:11.567Z,3.65
2023-04-18T06:05:43.165Z,4.97
2023-04-18T06:08:13.810Z,4.50
2023-04-18T06:10:41.424Z,4.28
2023-04-18T06:13:15.039Z,4.90
2023-04-18T06:15:48.467Z,3.55
2023-04-18T06:18:21.682Z,4.20
2023-04-18T06:20:51.753Z,4.90
2023-04-18T06:23:22.857Z,4.22
2023-04-18T06:25:56.777Z,5.20
2023-04-18T06:28:32.802Z,5.10
2023-04-18T06:31:04.884Z,4.72
2023-04-18T06:33:37.836Z,5.22
2023-04-18T06:36:11.403Z,5.47
2023-04-18T06:41:21.471Z,3.60
2023-04-18T06:44:04.220Z,4.53
2023-04-18T06:46:37.942Z,4.10
2023-04-18T06:49:11.138Z,7.55
2023-04-18T06:51:40.212Z,5.57
2023-04-18T06:54:14.667Z,3.75
2023-04-18T06:56:48.794Z,4.75
2023-04-18T06:59:17.693Z,6.05
2023-04-18T07:01:48.235Z,6.28
2023-04-18T07:04:16.435Z,3.80
2023-04-18T07:06:45.825Z,5.32
2023-04-18T07:09:23.745Z,4.43
2023-04-18T07:12:03.295Z,5.53
2023-04-18T07:14:36.814Z,5.32
2023-04-18T07:17:14.117Z,7.78
2023-04-18T07:19:42.785Z,7.85
2023-04-18T07:22:14.639Z,5.78
2023-04-18T07:24:54.627Z,5.55
2023-04-18T07:27:27.930Z,7.45
2023-04-18T07:29:58.620Z,5.72
2023-04-18T07:32:44.349Z,10.88
2023-04-18T07:35:18.058Z,7.00
2023-04-18T07:40:22.680Z,5.65
2023-04-18T07:42:53.567Z,6.45
2023-04-18T07:45:38.467Z,7.20
2023-04-18T07:48:11.485Z,8.10
2023-04-18T07:50:44.998Z,7.35
2023-04-18T07:53:17.218Z,9.23
2023-04-18T07:55:55.282Z,7.55
2023-04-18T07:58:24.153Z,8.63
2023-04-18T08:01:04.098Z,6.97
2023-04-18T08:03:40.500Z,5.95
2023-04-18T08:06:13.446Z,7.50
2023-04-18T08:08:50.464Z,8.02
2023-04-18T08:11:30.098Z,8.75
2023-04-18T08:14:11.957Z,8.57
2023-04-18T08:16:45.777Z,6.32
2023-04-18T08:19:24.856Z,7.22
2023-04-18T08:22:10.861Z,6.45
2023-04-18T08:24:39.469Z,7.30
2023-04-18T08:27:11.138Z,6.03
2023-04-18T08:29:42.364Z,8.27
2023-04-18T08:32:16.394Z,8.30
2023-04-18T08:34:47.691Z,6.95
2023-04-18T08:37:15.437Z,6.85
2023-04-18T08:39:45.635Z,7.35
2023-04-18T08:42:19.621Z,6.63
2023-04-18T08:44:52.386Z,6.25
2023-04-18T08:47:21.108Z,7.47
2023-04-18T08:49:49.077Z,8.88
2023-04-18T08:52:17.384Z,7.15
2023-04-18T08:54:49.493Z,6.65
2023-04-18T08:57:18.441Z,5.97
2023-04-18T08:59:50.866Z,6.97
2023-04-18T09:02:28.689Z,7.20
2023-04-18T09:04:59.742Z,7.05
2023-04-18T09:07:33.688Z,4.95
2023-04-18T09:10:04.864Z,6.60
2023-04-18T09:12:50.720Z,5.53
2023-04-18T09:15:23.814Z,6.53
2023-04-18T09:17:56.555Z,6.88
2023-04-18T09:20:35.329Z,6.73
2023-04-18T09:23:11.371Z,6.32
2023-04-18T09:25:45.282Z,7.00
2023-04-18T09:28:23.370Z,9.02
2023-04-18T09:30:54.604Z,5.35
2023-04-18T09:33:33.115Z,6.60
2023-04-18T09:36:32.513Z,6.60
2023-04-18T09:39:10.200Z,8.18
2023-04-18T09:41:44.130Z,5.68
2023-04-18T09:44:20.624Z,8.45
2023-04-18T09:46:54.514Z,6.05
2023-04-18T09:49:28.398Z,6.13
2023-04-18T09:52:01.963Z,5.78
2023-04-18T09:57:17.136Z,5.70
2023-04-18T10:00:17.535Z,6.80
2023-04-18T10:03:06.078Z,6.28
2023-04-18T10:05:40.632Z,5.85
2023-04-18T10:08:16.635Z,6.88
2023-04-18T10:10:47.282Z,7.07
2023-04-18T10:13:19.084Z,6.55
2023-04-18T10:15:56.311Z,6.32
2023-04-18T10:18:25.654Z,6.68
2023-04-18T10:21:05.821Z,6.85
2023-04-18T10:23:45.942Z,6.28
2023-04-18T10:26:19.251Z,7.03
2023-04-18T10:29:01.006Z,7.03
2023-04-18T10:31:29.822Z,6.35
2023-04-18T10:36:31.297Z,5.47
2023-04-18T10:39:22.618Z,5.63
2023-04-18T10:41:51.638Z,6.78
2023-04-18T10:44:23.077Z,5.97
2023-04-18T10:47:03.975Z,5.70
2023-04-18T10:49:34.748Z,5.70
2023-04-18T10:52:08.793Z,6.97
2023-04-18T10:54:57.707Z,6.72
2023-04-18T10:57:41.552Z,5.78
2023-04-18T11:00:11.917Z,5.38
2023-04-18T11:02:53.948Z,5.38
2023-04-18T11:05:25.600Z,6.13
2023-04-18T11:07:59.436Z,6.47
2023-04-18T11:10:30.732Z,4.80
2023-04-18T11:13:04.805Z,6.32
2023-04-18T11:15:36.820Z,7.05
2023-04-18T11:18:10.351Z,5.20
2023-04-18T11:23:27.231Z,6.05
2023-04-18T11:26:01.906Z,6.22
2023-04-18T11:28:35.166Z,6.25
2023-04-18T11:31:11.372Z,6.75
2023-04-18T11:33:47.443Z,6.10
2023-04-18T11:36:19.360Z,5.97
2023-04-18T11:38:50.651Z,6.05
2023-04-18T11:41:18.762Z,7.00
2023-04-18T11:43:50.412Z,5.95
2023-04-18T11:46:18.529Z,5.72
2023-04-18T11:48:50.435Z,5.70
2023-04-18T11:51:39.985Z,6.13
2023-04-18T11:54:39.691Z,5.75
2023-04-18T11:57:20.655Z,5.70
2023-04-18T12:00:13.195Z,6.15
2023-04-18T12:02:54.452Z,6.03
2023-04-18T12:05:31.982Z,7.68
2023-04-18T12:08:13.697Z,9.40
2023-04-18T12:10:50.757Z,7.43
2023-04-18T12:13:27.082Z,7.82
2023-04-18T12:15:55.641Z,8.00
2023-04-18T12:18:26.575Z,6.85
2023-04-18T12:21:02.006Z,8.20
2023-04-18T12:23:37.282Z,8.13
2023-04-18T12:26:22.951Z,8.45
2023-04-18T12:28:57.057Z,6.13
2023-04-18T12:31:28.958Z,7.75
2023-04-18T12:34:14.593Z,7.68
2023-04-18T12:36:52.814Z,7.03
2023-04-18T12:39:28.274Z,8.18
2023-04-18T12:41:57.893Z,6.82
2023-04-18T12:44:29.486Z,8.68
2023-04-18T12:47:02.256Z,8.05
2023-04-18T12:49:34.265Z,8.50
2023-04-18T12:52:07.554Z,9.40
2023-04-18T12:54:41.312Z,8.65
2023-04-18T12:57:16.024Z,8.45
2023-04-18T12:59:46.893Z,7.43
2023-04-18T13:02:20.439Z,6.55
2023-04-18T13:04:53.033Z,9.15
2023-04-18T13:07:24.213Z,6.00
2023-04-18T13:09:55.243Z,5.95
2023-04-18T13:12:31.352Z,5.70
2023-04-18T13:15:15.714Z,5.20
2023-04-18T13:17:47.423Z,5.97
2023-04-18T13:20:17.701Z,3.50
2023-04-18T13:22:57.348Z,5.60
2023-04-18T13:25:34.083Z,5.70
2023-04-18T13:28:07.439Z,5.32
2023-04-18T13:30:43.074Z,6.22
2023-04-18T13:33:23.299Z,5.47
2023-04-18T13:35:51.407Z,5.50
2023-04-18T13:38:31.083Z,5.55
2023-04-18T13:43:43.724Z,5.68
2023-04-18T13:46:14.922Z,5.78
2023-04-18T13:48:47.971Z,5.78
2023-04-18T13:51:20.425Z,6.15
2023-04-18T13:53:54.775Z,5.20
2023-04-18T13:56:28.366Z,4.90
2023-04-18T14:01:28.141Z,5.47
2023-04-18T14:03:56.535Z,5.88
2023-04-18T14:06:38.382Z,5.13
2023-04-18T14:09:09.471Z,4.30
2023-04-18T14:11:47.825Z,3.75
2023-04-18T14:14:18.562Z,4.95
2023-04-18T14:16:47.715Z,6.95
2023-04-18T14:19:23.974Z,5.80
2023-04-18T14:24:28.099Z,6.00
2023-04-18T14:27:03.530Z,4.53
2023-04-18T14:29:31.762Z,7.22
2023-04-18T14:31:59.820Z,5.68
2023-04-18T14:34:38.898Z,5.70
2023-04-18T14:37:12.410Z,7.40
2023-04-18T14:39:54.557Z,6.43
2023-04-18T14:42:30.111Z,4.32
2023-04-18T14:45:00.373Z,5.47
2023-04-18T14:47:31.872Z,6.50
2023-04-18T14:50:02.727Z,8.38
2023-04-18T14:52:31.410Z,5.15
2023-04-18T14:55:00.539Z,6.57
2023-04-18T14:57:31.374Z,6.38
2023-04-18T15:00:07.501Z,6.03
2023-04-18T15:02:36.395Z,6.47
2023-04-18T15:05:04.999Z,6.90
2023-04-18T15:07:33.949Z,8.98
2023-04-18T15:10:05.757Z,6.72
2023-04-18T15:12:37.691Z,7.72
2023-04-18T15:15:06.865Z,8.35
2023-04-18T15:17:40.423Z,6.68
2023-04-18T15:20:16.584Z,6.68
2023-04-18T15:22:47.592Z,6.70
2023-04-18T15:25:19.889Z,8.43
2023-04-18T15:27:51.564Z,7.07
2023-04-18T15:30:22.865Z,8.30
2023-04-18T15:32:56.720Z,7.28
2023-04-18T15:35:25.809Z,8.60
2023-04-18T15:37:54.142Z,6.07
2023-04-18T15:40:25.151Z,8.38
2023-04-18T15:42:54.505Z,7.30
2023-04-18T15:45:25.923Z,7.60
2023-04-18T15:47:56.542Z,8.07
2023-04-18T15:50:30.827Z,7.60
2023-04-18T15:53:07.795Z,8.63
2023-04-18T15:55:38.374Z,6.78
2023-04-18T15:58:06.701Z,5.15
2023-04-18T16:00:41.308Z,5.50
2023-04-18T16:03:23.453Z,5.80
2023-04-18T16:05:56.941Z,8.80
2023-04-18T16:08:31.967Z,7.00
2023-04-18T16:11:09.078Z,8.43
2023-04-18T16:13:38.313Z,5.80
2023-04-18T16:16:09.548Z,7.60
2023-04-18T16:18:38.321Z,7.43
2023-04-18T16:21:06.258Z,5.47
2023-04-18T16:23:37.017Z,7.13
2023-04-18T16:26:08.632Z,5.45
2023-04-18T16:28:42.276Z,5.28
2023-04-18T16:31:16.632Z,5.18
2023-04-18T16:33:51.756Z,8.18
2023-04-18T16:36:28.133Z,5.55
2023-04-18T16:39:01.165Z,6.50
2023-04-18T16:41:39.882Z,6.95
2023-04-18T16:44:10.669Z,7.30
2023-04-18T16:46:43.894Z,6.53
2023-04-18T16:49:12.721Z,5.20
2023-04-18T16:51:46.793Z,6.40
2023-04-18T16:59:26.095Z,7.10
2023-04-18T17:02:01.560Z,6.15
2023-04-18T17:04:36.666Z,5.78
2023-04-18T17:07:08.167Z,6.88
2023-04-18T17:09:38.633Z,6.38
2023-04-18T17:12:17.177Z,5.97
2023-04-18T17:14:58.679Z,6.15
2023-04-18T17:17:38.573Z,5.82
2023-04-18T17:20:12.523Z,5.20
2023-04-18T17:22:46.747Z,6.13
2023-04-18T17:25:26.012Z,6.97
2023-04-18T17:28:05.596Z,6.07
2023-04-18T17:30:42.815Z,6.63
2023-04-18T17:33:23.798Z,6.18
2023-04-18T17:35:57.325Z,5.95
2023-04-18T17:41:11.285Z,5.43
2023-04-18T17:43:44.896Z,5.70
2023-04-18T17:48:59.846Z,5.90
2023-04-18T17:51:35.079Z,5.82
2023-04-18T17:54:11.211Z,6.45
2023-04-18T17:56:53.433Z,5.90
2023-04-18T17:59:29.621Z,6.43
2023-04-18T18:02:04.707Z,5.78
2023-04-18T18:04:42.671Z,6.57
2023-04-18T18:07:16.204Z,6.70
2023-04-18T18:12:30.755Z,5.00
2023-04-18T18:15:07.811Z,6.03
2023-04-18T18:17:42.957Z,6.20
2023-04-18T18:20:17.705Z,5.50
2023-04-18T18:22:51.575Z,5.82
2023-04-18T18:25:36.411Z,6.22
2023-04-18T18:28:13.996Z,6.47
2023-04-18T18:30:50.023Z,6.35
2023-04-18T18:33:28.842Z,5.60
2023-04-18T18:36:09.878Z,7.13
2023-04-18T18:38:53.212Z,5.72
2023-04-18T18:41:34.086Z,4.88
2023-04-18T18:44:11.684Z,6.55
2023-04-18T18:46:43.226Z,6.38
2023-04-18T18:49:23.655Z,6.53
2023-04-18T18:51:57.021Z,6.00
2023-04-18T18:54:37.348Z,5.75
2023-04-18T18:57:10.661Z,5.60
2023-04-18T18:59:50.100Z,5.18
2023-04-18T19:02:32.023Z,6.43
2023-04-18T19:05:09.329Z,6.60
2023-04-18T19:07:50.948Z,5.63
2023-04-18T19:10:22.007Z,6.47
2023-04-18T19:13:03.479Z,6.28
2023-04-18T19:15:41.797Z,5.50
2023-04-18T19:18:12.803Z,5.82
2023-04-18T19:20:50.365Z,5.88
2023-04-18T19:23:31.003Z,5.13
2023-04-18T19:26:04.270Z,6.38
2023-04-18T19:28:45.878Z,5.93
2023-04-18T19:31:23.818Z,6.03
2023-04-18T19:33:58.451Z,4.97
2023-04-18T19:36:37.062Z,4.68
2023-04-18T19:39:09.769Z,5.72
2023-04-18T19:41:46.566Z,5.65
2023-04-18T19:44:21.035Z,5.65
2023-04-18T19:46:58.510Z,5.13
2023-04-18T19:49:35.032Z,6.80
2023-04-18T19:52:06.423Z,5.03
2023-04-18T19:54:47.594Z,5.50
2023-04-18T19:57:29.417Z,5.65
2023-04-18T20:00:03.752Z,5.87
2023-04-18T20:02:51.830Z,4.97
2023-04-18T20:05:31.226Z,6.60
2023-04-18T20:08:04.158Z,6.55
2023-04-18T20:10:36.642Z,5.97
2023-04-18T20:13:16.626Z,5.65
2023-04-18T20:15:50.527Z,5.35
2023-04-18T20:18:29.494Z,5.38
2023-04-18T20:21:09.815Z,5.03
2023-04-18T20:23:46.805Z,6.30
2023-04-18T20:26:20.772Z,6.47
2023-04-18T20:28:57.985Z,5.32
2023-04-18T20:31:41.782Z,5.38
2023-04-18T20:34:19.143Z,6.40
2023-04-18T20:36:55.594Z,4.95
2023-04-18T20:39:31.797Z,5.18
2023-04-18T20:42:14.237Z,5.05
2023-04-18T20:44:50.531Z,5.85
2023-04-18T20:47:23.380Z,5.82
2023-04-18T20:50:01.579Z,4.80
2023-04-18T20:52:30.389Z,5.97
2023-04-18T20:55:03.289Z,5.43
2023-04-18T20:57:42.416Z,4.97
2023-04-18T21:00:23.776Z,7.68
2023-04-18T21:03:00.113Z,6.30
2023-04-18T21:05:37.263Z,6.90
2023-04-18T21:08:12.878Z,4.97
2023-04-18T21:10:49.716Z,5.75
2023-04-18T21:13:25.170Z,4.80
2023-04-18T21:16:03.633Z,6.57
2023-04-18T21:18:36.723Z,5.53
2023-04-18T21:21:12.573Z,5.43
2023-04-18T21:23:51.520Z,4.82
2023-04-18T21:26:28.280Z,5.18
2023-04-18T21:29:08.334Z,5.18
2023-04-18T21:31:38.443Z,5.95
2023-04-18T21:34:18.054Z,5.78
2023-04-18T21:36:48.916Z,5.53
2023-04-18T21:39:28.302Z,4.40
2023-04-18T21:42:03.967Z,5.43
2023-04-18T21:44:45.167Z,4.88
2023-04-18T21:47:20.622Z,6.10
2023-04-18T21:49:55.597Z,6.28
2023-04-18T21:52:30.307Z,5.07
2023-04-18T21:55:12.596Z,5.43
2023-04-18T21:57:48.721Z,5.18
2023-04-18T22:00:22.233Z,6.20
2023-04-18T22:02:55.664Z,6.15
2023-04-18T22:05:33.335Z,5.63
2023-04-18T22:08:10.179Z,6.47
2023-04-18T22:10:42.107Z,4.95
2023-04-18T22:13:19.011Z,5.22
2023-04-18T22:15:53.059Z,5.63
2023-04-18T22:18:26.248Z,5.75
2023-04-18T22:21:02.625Z,5.68
2023-04-18T22:23:44.551Z,5.70
2023-04-18T22:26:17.774Z,4.78
2023-04-18T22:28:50.902Z,5.70
2023-04-18T22:31:25.404Z,6.65
2023-04-18T22:33:58.163Z,5.32
2023-04-18T22:36:38.048Z,5.22
2023-04-18T22:39:13.991Z,5.88
2023-04-18T22:41:53.010Z,5.30
2023-04-18T22:44:26.680Z,5.45
2023-04-18T22:49:37.332Z,4.78
2023-04-18T22:52:14.333Z,4.63
2023-04-18T22:54:54.174Z,5.03
2023-04-18T22:57:30.777Z,5.80
2023-04-18T23:00:05.061Z,5.18
2023-04-18T23:02:49.276Z,4.75
2023-04-18T23:05:26.928Z,6.03
2023-04-18T23:08:04.551Z,6.20
2023-04-18T23:10:46.104Z,5.50
2023-04-18T23:13:20.407Z,4.22
2023-04-18T23:15:58.532Z,6.45
2023-04-18T23:18:30.192Z,5.43
2023-04-18T23:21:02.789Z,7.68
2023-04-18T23:23:34.167Z,5.57
2023-04-18T23:26:17.614Z,5.70
2023-04-18T23:28:52.128Z,5.78
2023-04-18T23:31:27.706Z,4.85
2023-04-18T23:34:06.388Z,5.85
2023-04-18T23:36:43.101Z,5.05
2023-04-18T23:39:22.287Z,6.25
2023-04-18T23:41:55.657Z,5.78
2023-04-18T23:44:29.954Z,8.02
2023-04-18T23:47:03.989Z,5.00
2023-04-18T23:49:41.322Z,5.22
2023-04-18T23:52:17.311Z,6.25
2023-04-18T23:54:56.346Z,6.85
2023-04-18T23:57:35.208Z,4.63
